createdAt,value
2019-05-12T00:04:15.108Z,3.47
2019-05-12T00:09:21.345Z,3.60
2019-05-12T00:14:28.270Z,3.79
2019-05-12T00:19:34.565Z,3.67
2019-05-12T00:24:40.866Z,3.87
2019-05-12T00:29:48.570Z,4.07
2019-05-12T00:34:55.197Z,4.07
2019-05-12T00:40:01.647Z,4.15
2019-05-12T00:45:08.262Z,3.88
2019-05-12T00:50:14.854Z,4.00
2019-05-12T00:55:21.410Z,4.06
2019-05-12T01:00:29.442Z,3.97
2019-05-12T01:05:38.298Z,3.87
2019-05-12T01:10:47.778Z,3.74
2019-05-12T01:15:54.314Z,3.85
2019-05-12T01:21:00.900Z,3.90
2019-05-12T01:26:08.831Z,4.82
2019-05-12T01:31:15.138Z,3.95
2019-05-12T01:36:21.500Z,4.05
2019-05-12T01:41:28.677Z,3.95
2019-05-12T01:46:35.178Z,4.21
2019-05-12T01:51:41.343Z,4.04
2019-05-12T01:56:48.302Z,4.43
2019-05-12T02:01:55.302Z,4.19
2019-05-12T02:07:01.804Z,4.16
2019-05-12T02:12:08.295Z,4.61
2019-05-12T02:17:14.939Z,4.73
2019-05-12T02:22:21.156Z,4.90
2019-05-12T02:27:28.371Z,4.59
2019-05-12T02:32:47.314Z,4.29
2019-05-12T02:37:40.859Z,4.23
2019-05-12T02:42:46.988Z,4.51
2019-05-12T02:47:54.315Z,4.07
2019-05-12T02:53:01.123Z,4.01
2019-05-12T02:58:07.367Z,4.24
2019-05-12T03:03:14.628Z,3.56
2019-05-12T03:08:21.292Z,3.80
2019-05-12T03:13:27.615Z,4.34
2019-05-12T03:18:34.752Z,3.75
2019-05-12T03:23:44.390Z,3.62
2019-05-12T03:28:51.362Z,3.81
2019-05-12T03:34:00.265Z,4.00
2019-05-12T03:39:07.081Z,3.54
2019-05-12T03:44:15.104Z,3.55
2019-05-12T03:49:24.447Z,3.74
2019-05-12T03:54:31.094Z,3.59
2019-05-12T03:59:37.539Z,3.66
2019-05-12T04:04:45.295Z,3.87
2019-05-12T04:09:54.538Z,3.70
2019-05-12T04:15:04.820Z,3.33
2019-05-12T04:20:04.750Z,3.91
2019-05-12T04:25:15.006Z,3.48
2019-05-12T04:30:22.171Z,3.30
2019-05-12T04:35:34.542Z,3.34
2019-05-12T04:40:31.672Z,3.37
2019-05-12T04:45:37.970Z,3.35
2019-05-12T04:50:45.321Z,3.52
2019-05-12T04:56:07.458Z,3.31
2019-05-12T05:00:58.015Z,3.42
2019-05-12T05:06:04.627Z,3.47
2019-05-12T05:11:10.976Z,3.37
2019-05-12T05:16:17.216Z,3.29
2019-05-12T05:21:24.087Z,3.20
2019-05-12T05:26:33.719Z,3.14
2019-05-12T05:31:33.663Z,3.01
2019-05-12T05:36:40.868Z,3.23
2019-05-12T05:41:51.097Z,3.31
2019-05-12T05:46:50.286Z,3.03
2019-05-12T05:51:57.568Z,3.13
2019-05-12T05:57:06.084Z,3.36
2019-05-12T06:02:13.823Z,3.28
2019-05-12T06:07:23.471Z,3.36
2019-05-12T06:12:26.584Z,3.38
2019-05-12T06:17:34.156Z,3.32
2019-05-12T06:22:40.736Z,3.20
2019-05-12T06:27:51.152Z,3.20
2019-05-12T06:32:54.674Z,3.33
2019-05-12T06:38:01.740Z,2.89
2019-05-12T06:43:08.903Z,3.06
2019-05-12T06:48:19.524Z,3.26
2019-05-12T06:53:29.110Z,3.74
2019-05-12T06:58:31.375Z,3.67
2019-05-12T07:03:33.994Z,3.21
2019-05-12T07:08:38.004Z,3.52
2019-05-12T07:13:34.811Z,3.23
2019-05-12T07:18:43.614Z,2.84
2019-05-12T07:23:50.512Z,3.32
2019-05-12T07:28:56.647Z,3.08
2019-05-12T07:34:07.116Z,3.24
2019-05-12T07:39:05.380Z,2.63
2019-05-12T07:44:14.194Z,2.89
2019-05-12T07:49:22.006Z,3.03
2019-05-12T07:54:29.426Z,2.83
2019-05-12T07:59:38.796Z,3.00
2019-05-12T08:04:39.798Z,2.69
2019-05-12T08:09:37.406Z,2.58
2019-05-12T08:14:43.998Z,2.81
2019-05-12T08:19:50.427Z,4.64
2019-05-12T08:24:56.680Z,3.02
2019-05-12T08:30:06.083Z,3.41
2019-05-12T08:35:13.925Z,3.10
2019-05-12T08:40:20.670Z,3.08
2019-05-12T08:45:33.683Z,4.77
2019-05-12T08:50:35.997Z,6.81
2019-05-12T08:55:43.585Z,5.95
2019-05-12T09:00:50.701Z,3.71
2019-05-12T09:05:59.052Z,6.42
2019-05-12T09:11:05.777Z,4.72
2019-05-12T09:16:13.780Z,5.37
2019-05-12T09:21:25.280Z,3.77
2019-05-12T09:26:28.362Z,2.45
2019-05-12T09:31:35.540Z,2.15
2019-05-12T09:36:44.091Z,2.72
2019-05-12T09:41:52.744Z,3.32
2019-05-12T09:46:53.427Z,2.09
2019-05-12T09:51:59.803Z,2.13
2019-05-12T09:57:06.378Z,2.27
2019-05-12T10:02:19.011Z,1.81
2019-05-12T10:07:16.904Z,1.79
2019-05-12T10:12:23.317Z,3.18
2019-05-12T10:17:30.370Z,2.58
2019-05-12T10:22:39.951Z,3.43
2019-05-12T10:27:46.701Z,6.37
2019-05-12T10:32:53.035Z,3.22
2019-05-12T10:38:00.086Z,3.47
2019-05-12T10:43:04.155Z,2.90
2019-05-12T10:48:14.791Z,3.95
2019-05-12T10:53:15.572Z,5.57
2019-05-12T10:58:14.642Z,2.36
2019-05-12T11:03:21.463Z,4.76
2019-05-12T11:08:29.381Z,4.08
2019-05-12T11:13:40.381Z,2.95
2019-05-12T11:18:43.675Z,2.55
2019-05-12T11:23:50.204Z,2.54
2019-05-12T11:28:56.623Z,2.21
2019-05-12T11:34:04.919Z,3.39
2019-05-12T11:39:11.186Z,2.08
2019-05-12T11:44:17.687Z,2.17
2019-05-12T11:49:26.446Z,2.15
2019-05-12T11:54:27.806Z,2.07
2019-05-12T11:59:24.714Z,2.27
2019-05-12T12:04:34.012Z,1.97
2019-05-12T12:09:40.314Z,1.79
2019-05-12T12:14:50.290Z,1.73
2019-05-12T12:19:47.301Z,2.03
2019-05-12T12:24:54.264Z,2.01
2019-05-12T12:30:13.737Z,2.30
2019-05-12T12:35:11.006Z,2.49
2019-05-12T12:40:09.408Z,2.15
2019-05-12T12:45:15.749Z,1.96
2019-05-12T12:50:26.384Z,2.92
2019-05-12T12:55:26.928Z,2.23
2019-05-12T13:00:46.632Z,1.88
2019-05-12T13:05:39.858Z,2.06
2019-05-12T13:10:51.269Z,2.20
2019-05-12T13:15:50.246Z,2.06
2019-05-12T13:20:58.183Z,2.32
2019-05-12T13:26:04.713Z,1.97
2019-05-12T13:31:13.670Z,2.80
2019-05-12T13:36:13.675Z,2.11
2019-05-12T13:41:20.662Z,1.87
2019-05-12T13:46:27.168Z,2.71
2019-05-12T13:51:33.856Z,3.55
2019-05-12T13:56:40.491Z,3.26
2019-05-12T14:01:47.315Z,2.46
2019-05-12T14:06:53.685Z,2.16
2019-05-12T14:12:00.598Z,2.68
2019-05-12T14:17:07.816Z,2.14
2019-05-12T14:22:21.328Z,1.99
2019-05-12T14:27:25.380Z,2.06
2019-05-12T14:32:25.263Z,2.30
2019-05-12T14:37:33.554Z,2.07
2019-05-12T14:42:40.201Z,2.34
2019-05-12T14:47:46.576Z,2.44
2019-05-12T14:52:55.879Z,2.48
2019-05-12T14:57:56.298Z,2.77
2019-05-12T15:03:05.610Z,3.20
2019-05-12T15:08:06.988Z,2.79
2019-05-12T15:13:14.131Z,2.66
2019-05-12T15:18:20.373Z,2.57
2019-05-12T15:23:32.423Z,3.44
2019-05-12T15:28:33.818Z,2.97
2019-05-12T15:33:40.128Z,3.14
2019-05-12T15:38:49.079Z,3.20
2019-05-12T15:43:52.889Z,3.21
2019-05-12T15:48:54.281Z,2.82
2019-05-12T15:54:06.563Z,3.04
2019-05-12T15:59:07.234Z,4.04
2019-05-12T16:04:15.257Z,3.24
2019-05-12T16:09:23.809Z,3.64
2019-05-12T16:14:35.516Z,3.46
2019-05-12T16:19:35.987Z,2.97
2019-05-12T16:24:48.727Z,3.39
2019-05-12T16:29:49.802Z,3.54
2019-05-12T16:34:48.723Z,3.14
2019-05-12T16:39:55.557Z,3.08
2019-05-12T16:45:08.097Z,3.36
2019-05-12T16:50:08.529Z,3.24
2019-05-12T16:55:11.154Z,3.87
2019-05-12T17:00:17.335Z,2.97
2019-05-12T17:05:24.172Z,2.87
2019-05-12T17:10:30.868Z,3.29
2019-05-12T17:15:37.269Z,3.05
2019-05-12T17:20:47.006Z,4.05
2019-05-12T17:25:50.388Z,2.64
2019-05-12T17:30:56.930Z,3.00
2019-05-12T17:36:12.040Z,3.07
2019-05-12T17:41:09.643Z,3.42
2019-05-12T17:46:18.074Z,3.30
2019-05-12T17:51:26.706Z,3.06
2019-05-12T17:56:33.081Z,2.70
2019-05-12T18:01:35.507Z,2.89
2019-05-12T18:06:44.178Z,2.73
2019-05-12T18:11:54.317Z,3.43
2019-05-12T18:17:01.748Z,2.98
2019-05-12T18:22:03.068Z,3.58
2019-05-12T18:27:07.571Z,3.30
2019-05-12T18:32:14.710Z,2.92
2019-05-12T18:37:21.097Z,2.70
2019-05-12T18:42:27.540Z,3.03
2019-05-12T18:47:36.521Z,2.81
2019-05-12T18:52:46.137Z,2.90
2019-05-12T18:57:54.518Z,3.24
2019-05-12T19:03:06.151Z,3.34
2019-05-12T19:08:05.367Z,3.04
2019-05-12T19:13:11.716Z,3.00
2019-05-12T19:18:18.472Z,3.28
2019-05-12T19:23:20.383Z,3.48
2019-05-12T19:28:26.910Z,3.28
2019-05-12T19:33:33.433Z,3.45
2019-05-12T19:38:40.007Z,3.73
2019-05-12T19:43:49.507Z,3.00
2019-05-12T19:48:56.184Z,3.59
2019-05-12T19:54:05.788Z,3.46
2019-05-12T19:59:14.481Z,3.38
2019-05-12T20:04:30.858Z,3.19
2019-05-12T20:09:27.979Z,3.82
2019-05-12T20:14:37.348Z,3.61
2019-05-12T20:19:43.720Z,3.65
2019-05-12T20:24:50.032Z,3.63
2019-05-12T20:29:56.407Z,4.16
2019-05-12T20:35:04.258Z,4.11
2019-05-12T20:40:13.471Z,4.03
2019-05-12T20:45:23.598Z,4.16
2019-05-12T20:50:25.948Z,3.96
2019-05-12T20:55:33.524Z,4.24
2019-05-12T21:00:33.664Z,5.74
2019-05-12T21:05:40.323Z,4.24
2019-05-12T21:10:46.639Z,3.88
2019-05-12T21:15:53.934Z,4.21
2019-05-12T21:21:00.648Z,4.30
2019-05-12T21:26:07.067Z,3.98
2019-05-12T21:31:14.173Z,4.35
2019-05-12T21:36:24.219Z,4.15
2019-05-12T21:41:24.580Z,4.62
2019-05-12T21:46:30.978Z,4.27
2019-05-12T21:51:37.168Z,3.83
2019-05-12T21:56:48.851Z,4.48
2019-05-12T22:01:46.072Z,6.07
2019-05-12T22:06:56.967Z,4.48
2019-05-12T22:11:56.453Z,4.04
2019-05-12T22:17:03.582Z,4.38
2019-05-12T22:22:09.698Z,3.91
2019-05-12T22:27:21.914Z,4.26
2019-05-12T22:32:25.454Z,3.79
2019-05-12T22:37:34.877Z,4.07
2019-05-12T22:42:34.581Z,4.28
2019-05-12T22:47:40.797Z,4.05
2019-05-12T22:52:49.305Z,4.00
2019-05-12T22:57:58.073Z,4.26
2019-05-12T23:03:09.967Z,4.18
2019-05-12T23:08:09.020Z,4.18
2019-05-12T23:13:15.819Z,4.09
2019-05-12T23:18:28.717Z,4.17
2019-05-12T23:23:27.320Z,4.40
2019-05-12T23:28:33.845Z,5.71
2019-05-12T23:33:44.140Z,4.08
2019-05-12T23:38:40.607Z,4.82
2019-05-12T23:43:46.876Z,4.41
2019-05-12T23:48:54.357Z,4.66
2019-05-12T23:54:00.634Z,3.94
2019-05-12T23:59:07.005Z,4.21
